sensor_id;sensor_type;location;lat;lon;timestamp;P1;durP1;ratioP1;P2;durP2;ratioP2
57331;SDS011;43164;50.908;18.092;2022-08-19T00:01:57;9.50;;;6.30;;
57331;SDS011;43164;50.908;18.092;2022-08-19T00:04:27;10.40;;;6.90;;
57331;SDS011;43164;50.908;18.092;2022-08-19T00:06:56;12.10;;;6.70;;
57331;SDS011;43164;50.908;18.092;2022-08-19T00:09:24;13.20;;;7.00;;
57331;SDS011;43164;50.908;18.092;2022-08-19T00:11:52;11.10;;;6.50;;
57331;SDS011;43164;50.908;18.092;2022-08-19T00:14:23;11.90;;;6.90;;
57331;SDS011;43164;50.908;18.092;2022-08-19T00:16:51;13.40;;;7.00;;
57331;SDS011;43164;50.908;18.092;2022-08-19T00:19:20;11.60;;;6.80;;
57331;SDS011;43164;50.908;18.092;2022-08-19T00:21:49;11.90;;;6.30;;
57331;SDS011;43164;50.908;18.092;2022-08-19T00:24:17;12.50;;;7.90;;
57331;SDS011;43164;50.908;18.092;2022-08-19T00:26:46;11.70;;;7.00;;
57331;SDS011;43164;50.908;18.092;2022-08-19T00:29:15;11.90;;;7.70;;
57331;SDS011;43164;50.908;18.092;2022-08-19T00:31:43;11.00;;;7.20;;
57331;SDS011;43164;50.908;18.092;2022-08-19T00:34:12;16.30;;;8.60;;
57331;SDS011;43164;50.908;18.092;2022-08-19T00:36:41;11.50;;;7.30;;
57331;SDS011;43164;50.908;18.092;2022-08-19T00:39:11;14.70;;;7.10;;
57331;SDS011;43164;50.908;18.092;2022-08-19T00:41:39;12.80;;;7.40;;
57331;SDS011;43164;50.908;18.092;2022-08-19T00:46:38;12.90;;;7.10;;
57331;SDS011;43164;50.908;18.092;2022-08-19T00:49:18;11.50;;;7.40;;
57331;SDS011;43164;50.908;18.092;2022-08-19T00:52:00;11.20;;;7.20;;
57331;SDS011;43164;50.908;18.092;2022-08-19T00:54:40;13.90;;;7.50;;
57331;SDS011;43164;50.908;18.092;2022-08-19T00:57:10;12.70;;;7.50;;
57331;SDS011;43164;50.908;18.092;2022-08-19T00:59:47;11.60;;;7.30;;
57331;SDS011;43164;50.908;18.092;2022-08-19T01:02:22;13.10;;;8.70;;
57331;SDS011;43164;50.908;18.092;2022-08-19T01:04:50;13.60;;;7.50;;
57331;SDS011;43164;50.908;18.092;2022-08-19T01:07:20;12.20;;;7.90;;
57331;SDS011;43164;50.908;18.092;2022-08-19T01:09:48;12.40;;;8.00;;
57331;SDS011;43164;50.908;18.092;2022-08-19T01:12:16;11.10;;;7.90;;
57331;SDS011;43164;50.908;18.092;2022-08-19T01:14:44;11.10;;;7.60;;
57331;SDS011;43164;50.908;18.092;2022-08-19T01:17:12;13.70;;;8.80;;
57331;SDS011;43164;50.908;18.092;2022-08-19T01:19:40;14.70;;;8.00;;
57331;SDS011;43164;50.908;18.092;2022-08-19T01:22:12;13.10;;;8.60;;
57331;SDS011;43164;50.908;18.092;2022-08-19T01:24:55;12.20;;;7.80;;
57331;SDS011;43164;50.908;18.092;2022-08-19T01:27:58;13.90;;;8.70;;
57331;SDS011;43164;50.908;18.092;2022-08-19T01:30:26;14.50;;;8.60;;
57331;SDS011;43164;50.908;18.092;2022-08-19T01:32:56;14.00;;;8.60;;
57331;SDS011;43164;50.908;18.092;2022-08-19T01:35:25;13.40;;;9.00;;
57331;SDS011;43164;50.908;18.092;2022-08-19T01:37:56;14.00;;;9.40;;
57331;SDS011;43164;50.908;18.092;2022-08-19T01:40:25;13.60;;;8.70;;
57331;SDS011;43164;50.908;18.092;2022-08-19T01:42:56;14.60;;;9.20;;
57331;SDS011;43164;50.908;18.092;2022-08-19T01:45:24;14.70;;;8.60;;
57331;SDS011;43164;50.908;18.092;2022-08-19T01:47:52;13.00;;;8.60;;
57331;SDS011;43164;50.908;18.092;2022-08-19T01:50:19;16.90;;;9.40;;
57331;SDS011;43164;50.908;18.092;2022-08-19T01:52:47;14.20;;;8.50;;
57331;SDS011;43164;50.908;18.092;2022-08-19T01:55:15;15.00;;;9.10;;
57331;SDS011;43164;50.908;18.092;2022-08-19T01:57:48;15.20;;;9.50;;
57331;SDS011;43164;50.908;18.092;2022-08-19T02:00:20;15.40;;;9.20;;
57331;SDS011;43164;50.908;18.092;2022-08-19T02:02:50;15.90;;;8.80;;
57331;SDS011;43164;50.908;18.092;2022-08-19T02:05:16;14.90;;;10.00;;
57331;SDS011;43164;50.908;18.092;2022-08-19T02:07:45;13.60;;;9.30;;
57331;SDS011;43164;50.908;18.092;2022-08-19T02:10:14;14.50;;;9.50;;
57331;SDS011;43164;50.908;18.092;2022-08-19T02:12:43;13.30;;;9.70;;
57331;SDS011;43164;50.908;18.092;2022-08-19T02:15:11;15.70;;;9.50;;
57331;SDS011;43164;50.908;18.092;2022-08-19T02:17:39;14.60;;;9.50;;
57331;SDS011;43164;50.908;18.092;2022-08-19T02:20:07;14.10;;;9.30;;
57331;SDS011;43164;50.908;18.092;2022-08-19T02:22:35;15.50;;;10.20;;
57331;SDS011;43164;50.908;18.092;2022-08-19T02:25:03;15.70;;;9.70;;
57331;SDS011;43164;50.908;18.092;2022-08-19T02:27:31;12.40;;;8.80;;
57331;SDS011;43164;50.908;18.092;2022-08-19T02:30:00;17.50;;;10.10;;
57331;SDS011;43164;50.908;18.092;2022-08-19T02:32:27;17.70;;;10.50;;
57331;SDS011;43164;50.908;18.092;2022-08-19T02:34:57;14.60;;;9.90;;
57331;SDS011;43164;50.908;18.092;2022-08-19T02:37:24;15.80;;;10.10;;
57331;SDS011;43164;50.908;18.092;2022-08-19T02:40:11;18.70;;;10.00;;
57331;SDS011;43164;50.908;18.092;2022-08-19T02:42:39;16.00;;;10.60;;
57331;SDS011;43164;50.908;18.092;2022-08-19T02:45:07;15.40;;;9.90;;
57331;SDS011;43164;50.908;18.092;2022-08-19T02:47:35;17.60;;;10.80;;
57331;SDS011;43164;50.908;18.092;2022-08-19T02:50:04;14.70;;;10.40;;
57331;SDS011;43164;50.908;18.092;2022-08-19T02:52:33;17.00;;;9.80;;
57331;SDS011;43164;50.908;18.092;2022-08-19T02:55:01;16.50;;;10.60;;
57331;SDS011;43164;50.908;18.092;2022-08-19T02:57:29;16.60;;;10.90;;
57331;SDS011;43164;50.908;18.092;2022-08-19T02:59:58;14.40;;;10.40;;
57331;SDS011;43164;50.908;18.092;2022-08-19T03:02:26;14.30;;;10.60;;
57331;SDS011;43164;50.908;18.092;2022-08-19T03:04:54;18.00;;;10.40;;
57331;SDS011;43164;50.908;18.092;2022-08-19T03:07:21;15.80;;;10.40;;
57331;SDS011;43164;50.908;18.092;2022-08-19T03:09:49;17.00;;;10.60;;
57331;SDS011;43164;50.908;18.092;2022-08-19T03:12:16;17.60;;;10.70;;
57331;SDS011;43164;50.908;18.092;2022-08-19T03:14:43;15.90;;;10.90;;
57331;SDS011;43164;50.908;18.092;2022-08-19T03:17:13;17.40;;;11.40;;
57331;SDS011;43164;50.908;18.092;2022-08-19T03:19:40;17.10;;;11.10;;
57331;SDS011;43164;50.908;18.092;2022-08-19T03:22:09;17.10;;;10.40;;
57331;SDS011;43164;50.908;18.092;2022-08-19T03:24:37;17.80;;;9.80;;
57331;SDS011;43164;50.908;18.092;2022-08-19T03:27:05;18.20;;;11.10;;
57331;SDS011;43164;50.908;18.092;2022-08-19T03:29:33;16.20;;;10.20;;
57331;SDS011;43164;50.908;18.092;2022-08-19T03:32:06;17.60;;;11.30;;
57331;SDS011;43164;50.908;18.092;2022-08-19T03:34:34;16.70;;;11.90;;
57331;SDS011;43164;50.908;18.092;2022-08-19T03:37:05;16.80;;;11.20;;
57331;SDS011;43164;50.908;18.092;2022-08-19T03:39:35;16.20;;;11.20;;
57331;SDS011;43164;50.908;18.092;2022-08-19T03:42:04;17.10;;;11.10;;
57331;SDS011;43164;50.908;18.092;2022-08-19T03:44:32;19.80;;;11.50;;
57331;SDS011;43164;50.908;18.092;2022-08-19T03:46:59;16.90;;;11.00;;
57331;SDS011;43164;50.908;18.092;2022-08-19T03:49:29;17.70;;;11.30;;
57331;SDS011;43164;50.908;18.092;2022-08-19T03:51:58;17.60;;;11.60;;
57331;SDS011;43164;50.908;18.092;2022-08-19T03:54:27;16.40;;;11.00;;
57331;SDS011;43164;50.908;18.092;2022-08-19T03:57:02;18.20;;;11.00;;
57331;SDS011;43164;50.908;18.092;2022-08-19T03:59:32;17.80;;;11.50;;
57331;SDS011;43164;50.908;18.092;2022-08-19T04:02:02;17.70;;;12.10;;
57331;SDS011;43164;50.908;18.092;2022-08-19T04:04:40;20.20;;;11.80;;
57331;SDS011;43164;50.908;18.092;2022-08-19T04:07:10;16.80;;;11.40;;
57331;SDS011;43164;50.908;18.092;2022-08-19T04:09:39;17.40;;;11.80;;
57331;SDS011;43164;50.908;18.092;2022-08-19T04:12:07;15.50;;;11.10;;
57331;SDS011;43164;50.908;18.092;2022-08-19T04:14:34;21.00;;;11.90;;
57331;SDS011;43164;50.908;18.092;2022-08-19T04:17:02;17.20;;;11.50;;
57331;SDS011;43164;50.908;18.092;2022-08-19T04:19:34;18.00;;;10.40;;
57331;SDS011;43164;50.908;18.092;2022-08-19T04:22:02;16.30;;;10.90;;
57331;SDS011;43164;50.908;18.092;2022-08-19T04:24:31;17.90;;;9.70;;
57331;SDS011;43164;50.908;18.092;2022-08-19T04:26:59;16.70;;;10.60;;
57331;SDS011;43164;50.908;18.092;2022-08-19T04:29:29;17.30;;;9.90;;
57331;SDS011;43164;50.908;18.092;2022-08-19T04:31:57;19.60;;;9.80;;
57331;SDS011;43164;50.908;18.092;2022-08-19T04:34:26;15.80;;;9.40;;
57331;SDS011;43164;50.908;18.092;2022-08-19T04:36:56;16.10;;;10.10;;
57331;SDS011;43164;50.908;18.092;2022-08-19T04:39:28;15.80;;;10.50;;
57331;SDS011;43164;50.908;18.092;2022-08-19T04:42:19;15.60;;;10.60;;
57331;SDS011;43164;50.908;18.092;2022-08-19T04:45:12;14.80;;;10.00;;
57331;SDS011;43164;50.908;18.092;2022-08-19T04:47:41;16.00;;;9.80;;
57331;SDS011;43164;50.908;18.092;2022-08-19T04:50:10;14.40;;;9.60;;
57331;SDS011;43164;50.908;18.092;2022-08-19T04:52:38;11.80;;;8.80;;
57331;SDS011;43164;50.908;18.092;2022-08-19T04:55:12;18.40;;;9.60;;
57331;SDS011;43164;50.908;18.092;2022-08-19T04:57:41;13.40;;;9.10;;
57331;SDS011;43164;50.908;18.092;2022-08-19T05:00:08;13.90;;;8.90;;
57331;SDS011;43164;50.908;18.092;2022-08-19T05:02:37;13.40;;;8.50;;
57331;SDS011;43164;50.908;18.092;2022-08-19T05:05:15;14.40;;;8.40;;
57331;SDS011;43164;50.908;18.092;2022-08-19T05:07:48;13.10;;;8.60;;
57331;SDS011;43164;50.908;18.092;2022-08-19T05:10:17;15.70;;;7.70;;
57331;SDS011;43164;50.908;18.092;2022-08-19T05:12:49;13.20;;;8.10;;
57331;SDS011;43164;50.908;18.092;2022-08-19T05:15:16;15.30;;;7.90;;
57331;SDS011;43164;50.908;18.092;2022-08-19T05:17:51;16.80;;;8.20;;
57331;SDS011;43164;50.908;18.092;2022-08-19T05:20:39;10.10;;;7.20;;
57331;SDS011;43164;50.908;18.092;2022-08-19T05:23:38;11.40;;;8.10;;
57331;SDS011;43164;50.908;18.092;2022-08-19T05:26:08;12.40;;;8.00;;
57331;SDS011;43164;50.908;18.092;2022-08-19T05:28:40;13.10;;;7.70;;
57331;SDS011;43164;50.908;18.092;2022-08-19T05:31:13;13.60;;;7.70;;
57331;SDS011;43164;50.908;18.092;2022-08-19T05:33:50;16.70;;;7.70;;
57331;SDS011;43164;50.908;18.092;2022-08-19T05:36:19;14.70;;;7.90;;
57331;SDS011;43164;50.908;18.092;2022-08-19T05:38:58;11.90;;;7.90;;
57331;SDS011;43164;50.908;18.092;2022-08-19T05:41:29;13.70;;;9.30;;
57331;SDS011;43164;50.908;18.092;2022-08-19T05:47:09;15.40;;;10.60;;
57331;SDS011;43164;50.908;18.092;2022-08-19T05:53:19;19.80;;;12.00;;
57331;SDS011;43164;50.908;18.092;2022-08-19T05:55:49;18.30;;;12.30;;
57331;SDS011;43164;50.908;18.092;2022-08-19T05:58:17;20.80;;;11.80;;
57331;SDS011;43164;50.908;18.092;2022-08-19T06:00:45;18.00;;;12.50;;
57331;SDS011;43164;50.908;18.092;2022-08-19T06:03:22;18.40;;;11.90;;
57331;SDS011;43164;50.908;18.092;2022-08-19T06:05:53;16.80;;;10.60;;
57331;SDS011;43164;50.908;18.092;2022-08-19T06:08:28;16.70;;;9.20;;
57331;SDS011;43164;50.908;18.092;2022-08-19T06:10:57;13.10;;;8.70;;
57331;SDS011;43164;50.908;18.092;2022-08-19T06:13:44;14.80;;;8.20;;
57331;SDS011;43164;50.908;18.092;2022-08-19T06:16:39;12.20;;;7.70;;
57331;SDS011;43164;50.908;18.092;2022-08-19T06:19:16;12.00;;;7.50;;
57331;SDS011;43164;50.908;18.092;2022-08-19T06:21:57;12.80;;;6.80;;
57331;SDS011;43164;50.908;18.092;2022-08-19T06:26:59;13.80;;;6.80;;
57331;SDS011;43164;50.908;18.092;2022-08-19T06:29:29;12.50;;;6.60;;
57331;SDS011;43164;50.908;18.092;2022-08-19T06:32:08;16.30;;;6.30;;
57331;SDS011;43164;50.908;18.092;2022-08-19T06:34:40;10.20;;;6.30;;
57331;SDS011;43164;50.908;18.092;2022-08-19T06:37:25;12.00;;;6.20;;
57331;SDS011;43164;50.908;18.092;2022-08-19T06:40:11;9.50;;;5.80;;
57331;SDS011;43164;50.908;18.092;2022-08-19T06:42:44;11.00;;;5.90;;
57331;SDS011;43164;50.908;18.092;2022-08-19T06:45:29;10.20;;;5.80;;
57331;SDS011;43164;50.908;18.092;2022-08-19T07:20:19;12.20;;;5.60;;
57331;SDS011;43164;50.908;18.092;2022-08-19T07:23:13;11.80;;;6.40;;
57331;SDS011;43164;50.908;18.092;2022-08-19T07:39:45;13.10;;;6.20;;
57331;SDS011;43164;50.908;18.092;2022-08-19T07:42:22;12.00;;;5.50;;
57331;SDS011;43164;50.908;18.092;2022-08-19T07:48:42;14.20;;;6.00;;
57331;SDS011;43164;50.908;18.092;2022-08-19T07:51:33;14.60;;;6.50;;
57331;SDS011;43164;50.908;18.092;2022-08-19T07:57:49;13.60;;;5.90;;
57331;SDS011;43164;50.908;18.092;2022-08-19T09:49:16;10.50;;;4.40;;
57331;SDS011;43164;50.908;18.092;2022-08-19T09:51:53;10.90;;;3.90;;
57331;SDS011;43164;50.908;18.092;2022-08-19T12:43:57;12.10;;;4.10;;
57331;SDS011;43164;50.908;18.092;2022-08-19T12:46:42;18.30;;;3.90;;
57331;SDS011;43164;50.908;18.092;2022-08-19T12:49:17;10.30;;;4.10;;
57331;SDS011;43164;50.908;18.092;2022-08-19T14:36:44;16.50;;;5.40;;
57331;SDS011;43164;50.908;18.092;2022-08-19T15:07:38;15.80;;;5.60;;
57331;SDS011;43164;50.908;18.092;2022-08-19T15:10:13;16.10;;;6.00;;
57331;SDS011;43164;50.908;18.092;2022-08-19T15:16:21;11.20;;;5.30;;
57331;SDS011;43164;50.908;18.092;2022-08-19T15:41:44;13.20;;;6.10;;
57331;SDS011;43164;50.908;18.092;2022-08-19T15:44:33;10.30;;;5.90;;
57331;SDS011;43164;50.908;18.092;2022-08-19T16:13:05;15.80;;;5.90;;
57331;SDS011;43164;50.908;18.092;2022-08-19T16:22:27;10.50;;;4.10;;
57331;SDS011;43164;50.908;18.092;2022-08-19T16:25:11;12.80;;;4.20;;
57331;SDS011;43164;50.908;18.092;2022-08-19T16:27:51;10.20;;;4.10;;
57331;SDS011;43164;50.908;18.092;2022-08-19T16:30:26;18.40;;;4.80;;
57331;SDS011;43164;50.908;18.092;2022-08-19T16:36:05;22.40;;;6.10;;
57331;SDS011;43164;50.908;18.092;2022-08-19T16:38:45;12.70;;;2.60;;
57331;SDS011;43164;50.908;18.092;2022-08-19T16:41:19;15.90;;;3.90;;
57331;SDS011;43164;50.908;18.092;2022-08-19T16:43:52;19.60;;;4.90;;
57331;SDS011;43164;50.908;18.092;2022-08-19T16:46:22;12.70;;;4.10;;
57331;SDS011;43164;50.908;18.092;2022-08-19T16:48:50;14.20;;;4.10;;
57331;SDS011;43164;50.908;18.092;2022-08-19T16:51:20;10.90;;;3.80;;
57331;SDS011;43164;50.908;18.092;2022-08-19T16:53:49;16.40;;;4.60;;
57331;SDS011;43164;50.908;18.092;2022-08-19T16:56:21;15.90;;;5.40;;
57331;SDS011;43164;50.908;18.092;2022-08-19T16:58:51;12.30;;;5.10;;
57331;SDS011;43164;50.908;18.092;2022-08-19T17:01:24;15.20;;;4.60;;
57331;SDS011;43164;50.908;18.092;2022-08-19T17:03:59;15.80;;;4.70;;
57331;SDS011;43164;50.908;18.092;2022-08-19T17:06:31;11.80;;;4.80;;
57331;SDS011;43164;50.908;18.092;2022-08-19T17:09:07;12.80;;;5.10;;
57331;SDS011;43164;50.908;18.092;2022-08-19T17:11:36;16.80;;;5.70;;
57331;SDS011;43164;50.908;18.092;2022-08-19T17:14:13;14.60;;;5.50;;
57331;SDS011;43164;50.908;18.092;2022-08-19T17:16:43;14.20;;;5.10;;
57331;SDS011;43164;50.908;18.092;2022-08-19T17:19:14;15.10;;;5.50;;
57331;SDS011;43164;50.908;18.092;2022-08-19T17:21:43;13.20;;;6.20;;
57331;SDS011;43164;50.908;18.092;2022-08-19T17:24:12;15.10;;;5.50;;
57331;SDS011;43164;50.908;18.092;2022-08-19T17:26:40;13.10;;;5.00;;
57331;SDS011;43164;50.908;18.092;2022-08-19T17:29:08;14.30;;;5.50;;
57331;SDS011;43164;50.908;18.092;2022-08-19T17:31:37;22.80;;;5.70;;
57331;SDS011;43164;50.908;18.092;2022-08-19T17:34:05;16.50;;;6.40;;
57331;SDS011;43164;50.908;18.092;2022-08-19T17:36:32;15.20;;;5.80;;
57331;SDS011;43164;50.908;18.092;2022-08-19T17:39:00;14.60;;;5.60;;
57331;SDS011;43164;50.908;18.092;2022-08-19T17:41:28;14.80;;;4.80;;
57331;SDS011;43164;50.908;18.092;2022-08-19T17:43:56;14.90;;;5.80;;
57331;SDS011;43164;50.908;18.092;2022-08-19T17:46:24;12.00;;;6.20;;
57331;SDS011;43164;50.908;18.092;2022-08-19T17:48:51;16.50;;;5.80;;
57331;SDS011;43164;50.908;18.092;2022-08-19T17:54:02;15.80;;;5.50;;
57331;SDS011;43164;50.908;18.092;2022-08-19T17:56:33;13.30;;;6.10;;
57331;SDS011;43164;50.908;18.092;2022-08-19T17:59:01;14.50;;;5.90;;
57331;SDS011;43164;50.908;18.092;2022-08-19T18:01:28;13.30;;;5.10;;
57331;SDS011;43164;50.908;18.092;2022-08-19T18:03:56;13.40;;;5.80;;
57331;SDS011;43164;50.908;18.092;2022-08-19T18:06:24;14.20;;;6.20;;
57331;SDS011;43164;50.908;18.092;2022-08-19T18:08:51;16.20;;;6.80;;
57331;SDS011;43164;50.908;18.092;2022-08-19T18:11:18;13.30;;;5.60;;
57331;SDS011;43164;50.908;18.092;2022-08-19T18:13:46;20.50;;;6.20;;
57331;SDS011;43164;50.908;18.092;2022-08-19T18:16:13;11.50;;;5.40;;
57331;SDS011;43164;50.908;18.092;2022-08-19T18:18:42;13.50;;;5.70;;
57331;SDS011;43164;50.908;18.092;2022-08-19T18:21:10;14.80;;;5.30;;
57331;SDS011;43164;50.908;18.092;2022-08-19T18:23:38;14.00;;;6.70;;
57331;SDS011;43164;50.908;18.092;2022-08-19T18:26:05;15.50;;;6.00;;
57331;SDS011;43164;50.908;18.092;2022-08-19T18:28:33;14.70;;;6.20;;
57331;SDS011;43164;50.908;18.092;2022-08-19T18:31:01;17.10;;;6.10;;
57331;SDS011;43164;50.908;18.092;2022-08-19T18:33:30;13.60;;;6.40;;
57331;SDS011;43164;50.908;18.092;2022-08-19T18:35:59;15.60;;;6.20;;
57331;SDS011;43164;50.908;18.092;2022-08-19T18:38:27;18.40;;;7.30;;
57331;SDS011;43164;50.908;18.092;2022-08-19T18:41:14;14.60;;;5.60;;
57331;SDS011;43164;50.908;18.092;2022-08-19T18:44:01;14.30;;;6.60;;
57331;SDS011;43164;50.908;18.092;2022-08-19T18:46:47;12.20;;;6.00;;
57331;SDS011;43164;50.908;18.092;2022-08-19T18:49:35;16.00;;;6.90;;
57331;SDS011;43164;50.908;18.092;2022-08-19T18:52:03;21.50;;;8.40;;
57331;SDS011;43164;50.908;18.092;2022-08-19T18:54:33;17.50;;;7.50;;
57331;SDS011;43164;50.908;18.092;2022-08-19T19:00:42;18.40;;;8.70;;
57331;SDS011;43164;50.908;18.092;2022-08-19T19:03:11;18.60;;;8.10;;
57331;SDS011;43164;50.908;18.092;2022-08-19T19:05:41;17.30;;;7.60;;
57331;SDS011;43164;50.908;18.092;2022-08-19T19:08:14;15.40;;;8.20;;
57331;SDS011;43164;50.908;18.092;2022-08-19T19:10:48;17.10;;;7.90;;
57331;SDS011;43164;50.908;18.092;2022-08-19T19:13:21;19.50;;;8.90;;
57331;SDS011;43164;50.908;18.092;2022-08-19T19:15:51;18.90;;;8.20;;
57331;SDS011;43164;50.908;18.092;2022-08-19T19:18:31;20.50;;;8.10;;
57331;SDS011;43164;50.908;18.092;2022-08-19T19:21:04;16.10;;;8.50;;
57331;SDS011;43164;50.908;18.092;2022-08-19T19:23:40;17.10;;;8.70;;
57331;SDS011;43164;50.908;18.092;2022-08-19T19:26:11;19.30;;;8.60;;
57331;SDS011;43164;50.908;18.092;2022-08-19T19:28:56;16.50;;;8.20;;
57331;SDS011;43164;50.908;18.092;2022-08-19T19:31:34;14.90;;;7.20;;
57331;SDS011;43164;50.908;18.092;2022-08-19T19:34:12;19.10;;;6.50;;
57331;SDS011;43164;50.908;18.092;2022-08-19T19:36:45;10.90;;;5.10;;
57331;SDS011;43164;50.908;18.092;2022-08-19T19:39:30;14.30;;;5.60;;
57331;SDS011;43164;50.908;18.092;2022-08-19T19:42:10;12.80;;;6.20;;
57331;SDS011;43164;50.908;18.092;2022-08-19T19:44:44;15.40;;;6.10;;
57331;SDS011;43164;50.908;18.092;2022-08-19T19:47:15;16.50;;;6.70;;
57331;SDS011;43164;50.908;18.092;2022-08-19T19:49:48;15.90;;;6.20;;
57331;SDS011;43164;50.908;18.092;2022-08-19T19:52:20;10.70;;;4.50;;
57331;SDS011;43164;50.908;18.092;2022-08-19T19:54:53;12.80;;;5.50;;
57331;SDS011;43164;50.908;18.092;2022-08-19T19:57:22;12.70;;;5.30;;
57331;SDS011;43164;50.908;18.092;2022-08-19T19:59:51;18.50;;;6.20;;
57331;SDS011;43164;50.908;18.092;2022-08-19T20:02:21;13.00;;;5.70;;
57331;SDS011;43164;50.908;18.092;2022-08-19T20:04:58;12.90;;;6.10;;
57331;SDS011;43164;50.908;18.092;2022-08-19T20:07:30;13.30;;;5.40;;
57331;SDS011;43164;50.908;18.092;2022-08-19T20:10:35;11.00;;;5.10;;
57331;SDS011;43164;50.908;18.092;2022-08-19T20:13:18;13.70;;;5.40;;
57331;SDS011;43164;50.908;18.092;2022-08-19T20:18:54;11.70;;;5.00;;
57331;SDS011;43164;50.908;18.092;2022-08-19T20:21:24;12.60;;;4.30;;
57331;SDS011;43164;50.908;18.092;2022-08-19T20:24:04;10.80;;;4.40;;
57331;SDS011;43164;50.908;18.092;2022-08-19T20:26:32;14.40;;;5.00;;
57331;SDS011;43164;50.908;18.092;2022-08-19T20:29:02;11.70;;;4.30;;
57331;SDS011;43164;50.908;18.092;2022-08-19T20:31:30;9.40;;;4.50;;
57331;SDS011;43164;50.908;18.092;2022-08-19T20:34:00;10.00;;;4.20;;
57331;SDS011;43164;50.908;18.092;2022-08-19T20:36:28;13.40;;;4.40;;
57331;SDS011;43164;50.908;18.092;2022-08-19T20:39:03;12.20;;;4.00;;
57331;SDS011;43164;50.908;18.092;2022-08-19T20:41:32;10.90;;;4.20;;
57331;SDS011;43164;50.908;18.092;2022-08-19T20:44:02;9.80;;;4.60;;
57331;SDS011;43164;50.908;18.092;2022-08-19T20:46:31;11.10;;;4.00;;
57331;SDS011;43164;50.908;18.092;2022-08-19T20:48:59;13.50;;;4.40;;
57331;SDS011;43164;50.908;18.092;2022-08-19T20:51:28;12.00;;;4.50;;
57331;SDS011;43164;50.908;18.092;2022-08-19T20:53:58;11.10;;;4.00;;
57331;SDS011;43164;50.908;18.092;2022-08-19T20:56:28;13.40;;;4.50;;
57331;SDS011;43164;50.908;18.092;2022-08-19T20:59:05;13.40;;;5.00;;
57331;SDS011;43164;50.908;18.092;2022-08-19T21:01:38;14.50;;;4.70;;
57331;SDS011;43164;50.908;18.092;2022-08-19T21:04:12;10.20;;;4.70;;
57331;SDS011;43164;50.908;18.092;2022-08-19T21:06:42;13.40;;;4.20;;
57331;SDS011;43164;50.908;18.092;2022-08-19T21:09:18;9.80;;;5.00;;
57331;SDS011;43164;50.908;18.092;2022-08-19T21:11:46;12.40;;;4.80;;
57331;SDS011;43164;50.908;18.092;2022-08-19T21:14:15;13.10;;;5.50;;
57331;SDS011;43164;50.908;18.092;2022-08-19T21:16:43;11.60;;;4.90;;
57331;SDS011;43164;50.908;18.092;2022-08-19T21:19:12;12.40;;;5.40;;
57331;SDS011;43164;50.908;18.092;2022-08-19T21:21:41;11.10;;;5.80;;
57331;SDS011;43164;50.908;18.092;2022-08-19T21:24:15;12.70;;;4.80;;
57331;SDS011;43164;50.908;18.092;2022-08-19T21:26:50;15.00;;;5.80;;
57331;SDS011;43164;50.908;18.092;2022-08-19T21:29:19;14.90;;;5.60;;
57331;SDS011;43164;50.908;18.092;2022-08-19T21:31:48;11.70;;;5.20;;
57331;SDS011;43164;50.908;18.092;2022-08-19T21:34:16;12.00;;;5.00;;
57331;SDS011;43164;50.908;18.092;2022-08-19T21:36:45;12.40;;;4.90;;
57331;SDS011;43164;50.908;18.092;2022-08-19T21:39:15;11.90;;;4.90;;
57331;SDS011;43164;50.908;18.092;2022-08-19T21:41:44;19.50;;;5.40;;
57331;SDS011;43164;50.908;18.092;2022-08-19T21:44:15;11.00;;;4.80;;
57331;SDS011;43164;50.908;18.092;2022-08-19T21:46:43;14.10;;;4.60;;
57331;SDS011;43164;50.908;18.092;2022-08-19T21:49:11;11.60;;;5.00;;
57331;SDS011;43164;50.908;18.092;2022-08-19T21:51:40;13.40;;;5.70;;
57331;SDS011;43164;50.908;18.092;2022-08-19T21:54:08;15.30;;;6.70;;
57331;SDS011;43164;50.908;18.092;2022-08-19T21:56:36;11.30;;;4.50;;
57331;SDS011;43164;50.908;18.092;2022-08-19T21:59:05;9.90;;;4.70;;
57331;SDS011;43164;50.908;18.092;2022-08-19T22:01:34;11.70;;;4.20;;
57331;SDS011;43164;50.908;18.092;2022-08-19T22:04:04;10.20;;;4.00;;
57331;SDS011;43164;50.908;18.092;2022-08-19T22:06:33;9.70;;;4.00;;
57331;SDS011;43164;50.908;18.092;2022-08-19T22:09:09;12.60;;;3.50;;
57331;SDS011;43164;50.908;18.092;2022-08-19T22:14:56;12.50;;;3.60;;
57331;SDS011;43164;50.908;18.092;2022-08-19T22:17:27;12.60;;;3.20;;
57331;SDS011;43164;50.908;18.092;2022-08-19T22:19:55;16.90;;;3.60;;
57331;SDS011;43164;50.908;18.092;2022-08-19T22:22:26;10.40;;;3.60;;
57331;SDS011;43164;50.908;18.092;2022-08-19T22:25:16;11.80;;;3.50;;
57331;SDS011;43164;50.908;18.092;2022-08-19T22:27:44;13.50;;;3.50;;
57331;SDS011;43164;50.908;18.092;2022-08-19T22:30:12;8.60;;;3.00;;
57331;SDS011;43164;50.908;18.092;2022-08-19T22:32:46;9.40;;;3.10;;
57331;SDS011;43164;50.908;18.092;2022-08-19T22:35:19;10.80;;;3.40;;
57331;SDS011;43164;50.908;18.092;2022-08-19T22:41:36;10.90;;;3.30;;
57331;SDS011;43164;50.908;18.092;2022-08-19T22:44:10;13.60;;;3.10;;
57331;SDS011;43164;50.908;18.092;2022-08-19T22:46:38;12.90;;;3.30;;
57331;SDS011;43164;50.908;18.092;2022-08-19T22:49:06;13.40;;;3.40;;
57331;SDS011;43164;50.908;18.092;2022-08-19T22:51:35;12.00;;;3.50;;
57331;SDS011;43164;50.908;18.092;2022-08-19T22:54:22;15.30;;;3.60;;
57331;SDS011;43164;50.908;18.092;2022-08-19T22:56:51;13.60;;;3.70;;
57331;SDS011;43164;50.908;18.092;2022-08-19T22:59:25;11.40;;;3.50;;
57331;SDS011;43164;50.908;18.092;2022-08-19T23:02:04;9.60;;;3.50;;
57331;SDS011;43164;50.908;18.092;2022-08-19T23:04:42;11.30;;;3.70;;
57331;SDS011;43164;50.908;18.092;2022-08-19T23:07:10;12.40;;;3.60;;
57331;SDS011;43164;50.908;18.092;2022-08-19T23:09:39;10.40;;;3.60;;
57331;SDS011;43164;50.908;18.092;2022-08-19T23:12:07;13.20;;;4.00;;
57331;SDS011;43164;50.908;18.092;2022-08-19T23:14:40;11.30;;;3.40;;
57331;SDS011;43164;50.908;18.092;2022-08-19T23:17:09;9.70;;;3.90;;
57331;SDS011;43164;50.908;18.092;2022-08-19T23:19:38;11.80;;;3.90;;
57331;SDS011;43164;50.908;18.092;2022-08-19T23:22:06;13.80;;;4.40;;
57331;SDS011;43164;50.908;18.092;2022-08-19T23:24:34;12.30;;;4.50;;
57331;SDS011;43164;50.908;18.092;2022-08-19T23:27:03;13.30;;;4.40;;
57331;SDS011;43164;50.908;18.092;2022-08-19T23:29:50;14.10;;;4.40;;
57331;SDS011;43164;50.908;18.092;2022-08-19T23:32:37;16.50;;;4.40;;
57331;SDS011;43164;50.908;18.092;2022-08-19T23:35:06;15.10;;;4.90;;
57331;SDS011;43164;50.908;18.092;2022-08-19T23:37:35;12.70;;;5.60;;
57331;SDS011;43164;50.908;18.092;2022-08-19T23:40:04;11.70;;;4.30;;
57331;SDS011;43164;50.908;18.092;2022-08-19T23:42:34;12.70;;;5.10;;
57331;SDS011;43164;50.908;18.092;2022-08-19T23:45:09;13.20;;;4.20;;
57331;SDS011;43164;50.908;18.092;2022-08-19T23:47:37;11.10;;;4.40;;
57331;SDS011;43164;50.908;18.092;2022-08-19T23:50:06;13.40;;;5.10;;
57331;SDS011;43164;50.908;18.092;2022-08-19T23:52:45;12.10;;;4.80;;
57331;SDS011;43164;50.908;18.092;2022-08-19T23:55:23;13.30;;;4.90;;
57331;SDS011;43164;50.908;18.092;2022-08-19T23:57:53;14.30;;;4.70;;
